Time;durP1;ratioP1;P1;durP2;ratioP2;P2;SDS_P1;SDS_P2;PMS_P1;PMS_P2;Temp;Humidity;BMP_temperature;BMP_pressure;BME280_temperature;BME280_humidity;BME280_pressure;Samples;Min_cycle;Max_cycle;Signal;HPM_P1;HPM_P2
2022/09/03 00:02:06;;;;;;;1.70;1.30;;;16.40;98.20;;;;;;5018817;28;20114;-76
2022/09/03 00:04:52;;;;;;;3.22;1.42;;;16.40;98.30;;;;;;5021832;28;20073;-75
2022/09/03 00:07:33;;;;;;;3.00;1.40;;;16.30;98.40;;;;;;5029791;28;20065;-77
2022/09/03 00:10:08;;;;;;;3.20;1.50;;;16.30;98.70;;;;;;5019063;28;20033;-77
2022/09/03 00:12:39;;;;;;;3.10;1.50;;;16.30;98.70;;;;;;5024399;28;20073;-76
2022/09/03 00:15:18;;;;;;;2.92;1.35;;;16.30;98.70;;;;;;5003241;28;20025;-76
2022/09/03 00:18:04;;;;;;;1.67;1.30;;;16.20;99.00;;;;;;5021100;28;20084;-77
2022/09/03 00:20:43;;;;;;;2.33;1.20;;;16.20;99.00;;;;;;5008283;28;20036;-76
2022/09/03 00:23:17;;;;;;;3.80;1.17;;;16.20;99.00;;;;;;5019448;28;20034;-74
2022/09/03 00:25:56;;;;;;;1.60;1.33;;;16.20;99.10;;;;;;5022663;28;20022;-74
2022/09/03 00:28:29;;;;;;;4.10;1.40;;;16.10;99.30;;;;;;5025963;28;20033;-74
2022/09/03 00:31:06;;;;;;;2.75;1.20;;;16.20;99.30;;;;;;5026033;28;20029;-74
2022/09/03 00:33:34;;;;;;;3.97;1.50;;;16.20;99.50;;;;;;5007913;28;20041;-74
2022/09/03 00:36:12;;;;;;;5.50;1.50;;;16.20;99.30;;;;;;5019295;28;20026;-74
2022/09/03 00:38:37;;;;;;;3.72;1.25;;;16.20;99.50;;;;;;5020353;28;20110;-74
2022/09/03 00:41:30;;;;;;;1.50;1.20;;;16.10;99.50;;;;;;5025963;28;20105;-73
2022/09/03 00:44:25;;;;;;;2.42;1.40;;;16.20;99.50;;;;;;5012664;28;20018;-73
2022/09/03 00:46:55;;;;;;;3.00;1.40;;;16.30;99.50;;;;;;5023262;28;20111;-73
2022/09/03 00:49:39;;;;;;;1.77;1.40;;;16.10;99.60;;;;;;5019466;28;20072;-73
2022/09/03 00:52:34;;;;;;;2.25;1.42;;;16.10;99.60;;;;;;5018900;28;20022;-74
2022/09/03 00:55:08;;;;;;;2.75;1.40;;;16.10;99.80;;;;;;5021439;28;20484;-74
2022/09/03 00:57:53;;;;;;;3.78;1.50;;;16.10;99.80;;;;;;5024133;28;20467;-74
2022/09/03 01:00:19;;;;;;;3.60;1.13;;;16.10;99.80;;;;;;5025683;28;20017;-75
2022/09/03 01:03:09;;;;;;;2.78;1.50;;;16.20;99.80;;;;;;5020545;28;20086;-76
2022/09/03 01:06:07;;;;;;;1.70;1.27;;;16.10;99.90;;;;;;5018770;28;20029;-76
2022/09/03 01:08:59;;;;;;;2.17;1.30;;;16.10;99.90;;;;;;5017428;28;20037;-75
2022/09/03 01:11:58;;;;;;;4.13;1.48;;;16.00;99.90;;;;;;5032058;28;20027;-76
2022/09/03 01:14:46;;;;;;;1.33;1.17;;;16.10;99.90;;;;;;5003200;28;20033;-75
2022/09/03 01:17:52;;;;;;;1.52;1.30;;;16.00;99.90;;;;;;5006502;28;20029;-75
2022/09/03 01:20:31;;;;;;;2.45;1.35;;;15.90;99.90;;;;;;5008498;28;20516;-74
2022/09/03 01:23:19;;;;;;;3.03;1.45;;;16.00;99.90;;;;;;5006279;28;20434;-73
2022/09/03 01:25:53;;;;;;;3.47;1.70;;;15.80;99.90;;;;;;5022560;28;20025;-76
2022/09/03 01:28:46;;;;;;;2.63;1.55;;;15.60;99.90;;;;;;5014382;28;20034;-75
2022/09/03 01:31:35;;;;;;;6.10;1.40;;;15.40;99.90;;;;;;5023441;28;20049;-75
2022/09/03 01:34:40;;;;;;;3.67;1.63;;;15.40;99.90;;;;;;5019753;28;20109;-73
2022/09/03 01:37:23;;;;;;;2.22;1.35;;;15.20;99.90;;;;;;5005962;28;20054;-75
2022/09/03 01:40:13;;;;;;;2.35;1.50;;;15.00;99.90;;;;;;5012067;28;20026;-75
2022/09/03 01:43:01;;;;;;;2.78;1.65;;;14.80;99.90;;;;;;5011987;28;20052;-75
2022/09/03 01:45:53;;;;;;;2.88;1.70;;;14.70;99.90;;;;;;5011988;28;20383;-75
2022/09/03 01:48:40;;;;;;;1.73;1.30;;;14.70;99.90;;;;;;5009481;28;20030;-76
2022/09/03 01:51:18;;;;;;;2.05;1.40;;;14.80;99.90;;;;;;5012917;28;20037;-76
2022/09/03 01:54:03;;;;;;;1.60;1.50;;;14.40;99.90;;;;;;5025310;28;20052;-76
2022/09/03 01:56:50;;;;;;;2.28;1.40;;;14.50;99.90;;;;;;5023812;28;20026;-75
2022/09/03 01:59:44;;;;;;;2.15;1.83;;;14.50;99.90;;;;;;5029768;28;20030;-75
2022/09/03 02:02:27;;;;;;;3.97;1.45;;;14.60;99.90;;;;;;5025453;28;20087;-76
2022/09/03 02:05:01;;;;;;;2.03;1.80;;;14.70;99.90;;;;;;5027516;28;20021;-76
2022/09/03 02:07:33;;;;;;;4.78;1.65;;;14.80;99.90;;;;;;5021953;28;20505;-76
2022/09/03 02:10:01;;;;;;;2.15;1.45;;;15.00;99.90;;;;;;5022300;28;20661;-75
2022/09/03 02:12:32;;;;;;;3.78;1.50;;;15.10;99.90;;;;;;5027874;28;20045;-75
2022/09/03 02:14:59;;;;;;;3.20;1.60;;;14.90;99.90;;;;;;5016202;28;20034;-75
2022/09/03 02:17:25;;;;;;;1.63;1.40;;;15.30;99.90;;;;;;5026340;28;20022;-76
2022/09/03 02:19:50;;;;;;;2.25;1.63;;;15.10;99.90;;;;;;5027658;28;20108;-76
2022/09/03 02:22:18;;;;;;;4.10;1.73;;;15.30;99.90;;;;;;5023663;28;20021;-75
2022/09/03 02:24:44;;;;;;;2.58;1.45;;;15.20;99.90;;;;;;5035863;28;20491;-75
2022/09/03 02:27:10;;;;;;;2.60;1.50;;;15.20;99.90;;;;;;5024936;28;20033;-75
2022/09/03 02:29:35;;;;;;;3.10;1.63;;;15.20;99.90;;;;;;5028324;28;20079;-75
2022/09/03 02:32:01;;;;;;;2.28;1.58;;;15.20;99.90;;;;;;5022775;28;20022;-76
2022/09/03 02:34:28;;;;;;;2.47;1.30;;;15.20;99.90;;;;;;5022738;28;20029;-77
2022/09/03 02:36:57;;;;;;;1.75;1.25;;;15.20;99.90;;;;;;5026082;28;20030;-77
2022/09/03 02:39:22;;;;;;;1.80;1.60;;;15.20;99.90;;;;;;5027097;28;20025;-77
2022/09/03 02:41:57;;;;;;;4.80;1.65;;;15.30;99.90;;;;;;5015274;28;20052;-77
2022/09/03 02:44:31;;;;;;;2.30;1.50;;;15.20;99.90;;;;;;5015068;28;20026;-76
2022/09/03 02:47:00;;;;;;;2.42;1.50;;;15.20;99.90;;;;;;5015347;28;20029;-74
2022/09/03 02:49:27;;;;;;;4.18;1.40;;;15.30;99.90;;;;;;5015904;28;20074;-74
2022/09/03 02:51:59;;;;;;;2.67;1.88;;;15.30;99.90;;;;;;5015911;28;20050;-73
2022/09/03 02:54:27;;;;;;;3.90;1.80;;;15.20;99.90;;;;;;5027955;28;20539;-76
2022/09/03 02:56:52;;;;;;;1.77;1.38;;;15.20;99.90;;;;;;5027177;28;20059;-77
2022/09/03 02:59:18;;;;;;;4.00;1.52;;;15.30;99.90;;;;;;5029311;28;20468;-78
2022/09/03 03:01:44;;;;;;;3.00;1.63;;;15.30;99.90;;;;;;5027753;28;20032;-77
2022/09/03 03:04:09;;;;;;;2.78;1.50;;;15.30;99.90;;;;;;5027841;28;20030;-79
2022/09/03 03:06:35;;;;;;;3.05;1.52;;;15.30;99.90;;;;;;5013528;28;20540;-77
2022/09/03 03:09:04;;;;;;;2.30;1.70;;;15.20;99.90;;;;;;5026407;28;20395;-77
2022/09/03 03:11:30;;;;;;;3.65;1.52;;;15.30;99.90;;;;;;5027655;28;20022;-76
2022/09/03 03:13:56;;;;;;;1.60;1.50;;;15.30;99.90;;;;;;5006479;28;20085;-76
2022/09/03 03:16:22;;;;;;;3.28;1.50;;;15.30;99.90;;;;;;5007838;28;20022;-73
2022/09/03 03:18:48;;;;;;;2.50;1.20;;;15.30;99.90;;;;;;5007671;28;20360;-76
2022/09/03 03:21:16;;;;;;;2.92;1.67;;;15.20;99.90;;;;;;5019589;28;20029;-76
2022/09/03 03:23:42;;;;;;;2.00;1.52;;;15.20;99.90;;;;;;5006711;28;20026;-77
2022/09/03 03:26:11;;;;;;;2.20;1.70;;;15.10;99.90;;;;;;5020784;28;20427;-76
2022/09/03 03:28:37;;;;;;;1.98;1.30;;;15.00;99.90;;;;;;5026424;28;20403;-77
2022/09/03 03:31:10;;;;;;;1.95;1.70;;;15.00;99.90;;;;;;5013297;28;20096;-76
2022/09/03 03:33:36;;;;;;;2.78;1.60;;;14.80;99.90;;;;;;5024489;28;20033;-76
2022/09/03 03:36:14;;;;;;;2.25;1.50;;;14.70;99.90;;;;;;5027128;28;20036;-76
2022/09/03 03:38:41;;;;;;;2.80;1.58;;;14.40;99.90;;;;;;5019582;28;20022;-76
2022/09/03 03:41:25;;;;;;;2.60;1.58;;;14.60;99.90;;;;;;5025991;28;20031;-75
2022/09/03 03:43:56;;;;;;;2.17;1.40;;;14.50;99.90;;;;;;5025896;28;20038;-76
2022/09/03 03:46:22;;;;;;;2.22;1.58;;;14.50;99.90;;;;;;5018940;28;20026;-75
2022/09/03 03:48:49;;;;;;;2.58;1.73;;;14.70;99.90;;;;;;5020544;28;20388;-75
2022/09/03 03:51:15;;;;;;;2.25;1.70;;;14.50;99.90;;;;;;5027147;28;20022;-75
2022/09/03 03:53:41;;;;;;;1.70;1.55;;;14.60;99.90;;;;;;5024945;28;20033;-76
2022/09/03 03:56:10;;;;;;;2.42;1.73;;;14.60;99.90;;;;;;5020040;28;20079;-76
2022/09/03 03:58:36;;;;;;;2.17;1.40;;;14.50;99.90;;;;;;5020078;28;20428;-76
2022/09/03 04:01:28;;;;;;;2.83;1.58;;;14.30;99.90;;;;;;5007326;28;20018;-76
2022/09/03 04:03:55;;;;;;;3.28;1.80;;;14.50;99.90;;;;;;5015010;28;20029;-77
2022/09/03 04:06:20;;;;;;;2.65;1.58;;;14.30;99.90;;;;;;5023111;28;20025;-76
2022/09/03 04:08:47;;;;;;;3.85;1.50;;;14.20;99.90;;;;;;5026540;28;20053;-76
2022/09/03 04:11:20;;;;;;;1.70;1.60;;;14.00;99.90;;;;;;5013511;28;20061;-75
2022/09/03 04:13:46;;;;;;;2.40;1.85;;;14.00;99.90;;;;;;5030584;28;20068;-75
2022/09/03 04:16:15;;;;;;;4.15;1.58;;;14.00;99.90;;;;;;5020816;28;20026;-75
2022/09/03 04:18:41;;;;;;;2.25;1.58;;;14.00;99.90;;;;;;5024802;28;20029;-77
2022/09/03 04:21:09;;;;;;;2.20;1.40;;;13.90;99.90;;;;;;5021804;28;20026;-75
2022/09/03 04:23:37;;;;;;;2.15;1.40;;;14.10;99.90;;;;;;5026086;28;20030;-76
2022/09/03 04:26:03;;;;;;;3.15;1.80;;;14.20;99.90;;;;;;5024468;28;20591;-75
2022/09/03 04:28:29;;;;;;;2.22;1.58;;;14.30;99.90;;;;;;5019318;28;20100;-75
2022/09/03 04:31:03;;;;;;;4.35;1.75;;;14.20;99.90;;;;;;5018408;28;20068;-75
2022/09/03 04:33:30;;;;;;;2.47;1.60;;;14.30;99.90;;;;;;5005111;28;20041;-76
2022/09/03 04:36:16;;;;;;;4.30;1.83;;;14.20;99.90;;;;;;5012880;28;20050;-76
2022/09/03 04:38:44;;;;;;;2.17;1.70;;;14.10;99.90;;;;;;5012003;28;20089;-75
2022/09/03 04:41:16;;;;;;;3.17;1.98;;;14.20;99.90;;;;;;5015418;28;20391;-74
2022/09/03 04:43:42;;;;;;;2.63;1.60;;;14.00;99.90;;;;;;5020966;28;20100;-73
2022/09/03 04:46:09;;;;;;;4.07;1.70;;;14.10;99.90;;;;;;5012692;28;20125;-75
2022/09/03 04:48:36;;;;;;;2.65;1.50;;;14.30;99.90;;;;;;5012298;28;20026;-75
2022/09/03 04:51:14;;;;;;;3.53;1.90;;;14.10;99.90;;;;;;5029367;28;20033;-75
2022/09/03 04:53:45;;;;;;;4.13;2.15;;;14.00;99.90;;;;;;5032201;28;20100;-75
2022/09/03 04:56:13;;;;;;;6.30;1.73;;;13.90;99.90;;;;;;5030831;28;20029;-75
2022/09/03 04:58:42;;;;;;;3.10;1.60;;;14.00;99.90;;;;;;5016523;28;20032;-75
2022/09/03 05:01:09;;;;;;;1.95;1.67;;;13.70;99.90;;;;;;5016985;28;20026;-74
2022/09/03 05:03:36;;;;;;;3.88;1.70;;;13.80;99.90;;;;;;5027119;28;20509;-73
2022/09/03 05:06:02;;;;;;;2.90;1.80;;;13.90;99.90;;;;;;5023595;28;20058;-74
2022/09/03 05:08:28;;;;;;;2.38;1.65;;;13.80;99.90;;;;;;5012052;28;20076;-74
2022/09/03 05:10:59;;;;;;;5.38;1.60;;;13.70;99.90;;;;;;5012343;28;20029;-73
2022/09/03 05:13:25;;;;;;;1.65;1.50;;;13.80;99.90;;;;;;5012063;28;20462;-74
2022/09/03 05:15:50;;;;;;;3.88;1.70;;;13.90;99.90;;;;;;5012000;28;20030;-75
2022/09/03 05:18:16;;;;;;;2.42;1.90;;;13.90;99.90;;;;;;5026526;28;20029;-74
2022/09/03 05:20:42;;;;;;;1.92;1.42;;;14.10;99.90;;;;;;5022760;28;20022;-74
2022/09/03 05:23:08;;;;;;;2.92;1.75;;;14.00;99.90;;;;;;5020414;28;20036;-76
2022/09/03 05:25:34;;;;;;;2.63;1.63;;;14.10;99.90;;;;;;5012153;28;20038;-76
2022/09/03 05:28:00;;;;;;;3.15;1.80;;;14.20;99.90;;;;;;5014271;28;20022;-76
2022/09/03 05:30:26;;;;;;;3.10;1.50;;;14.20;99.90;;;;;;5022614;28;20034;-75
2022/09/03 05:32:51;;;;;;;3.05;1.77;;;14.20;99.90;;;;;;5026196;28;20034;-76
2022/09/03 05:35:17;;;;;;;3.63;1.65;;;14.30;99.90;;;;;;5022975;28;20022;-76
2022/09/03 05:37:44;;;;;;;2.53;1.55;;;14.30;99.90;;;;;;5025116;28;20391;-78
2022/09/03 05:40:10;;;;;;;1.98;1.77;;;14.40;99.90;;;;;;5019790;28;20025;-76
2022/09/03 05:42:39;;;;;;;1.90;1.70;;;14.40;99.90;;;;;;5017022;28;20487;-76
2022/09/03 05:45:08;;;;;;;2.33;1.70;;;14.60;99.90;;;;;;5021961;28;20037;-76
2022/09/03 05:47:34;;;;;;;2.83;1.80;;;14.60;99.90;;;;;;5023613;28;20033;-74
2022/09/03 05:49:59;;;;;;;1.70;1.60;;;14.80;99.90;;;;;;5011881;28;20390;-75
2022/09/03 05:52:25;;;;;;;3.55;1.90;;;14.80;99.90;;;;;;5025145;28;20022;-75
2022/09/03 05:54:51;;;;;;;2.50;1.60;;;14.90;99.90;;;;;;5020272;28;20488;-76
2022/09/03 05:57:16;;;;;;;2.25;1.67;;;14.90;99.90;;;;;;5016573;28;20029;-76
2022/09/03 05:59:42;;;;;;;2.38;1.60;;;14.70;99.90;;;;;;5021880;28;20104;-76
2022/09/03 06:02:07;;;;;;;4.30;1.77;;;15.10;99.90;;;;;;5024923;28;20025;-75
2022/09/03 06:04:33;;;;;;;3.28;1.70;;;15.30;99.90;;;;;;5021216;28;20056;-74
2022/09/03 06:06:58;;;;;;;1.92;1.73;;;15.30;99.90;;;;;;5018093;28;20033;-75
2022/09/03 06:09:24;;;;;;;3.20;1.70;;;15.30;99.90;;;;;;5021014;28;20058;-75
2022/09/03 06:11:50;;;;;;;3.33;1.48;;;15.60;99.90;;;;;;5010186;28;20026;-75
2022/09/03 06:14:16;;;;;;;3.13;1.58;;;15.70;99.90;;;;;;5011547;28;20021;-74
2022/09/03 06:16:44;;;;;;;2.67;1.52;;;16.00;99.90;;;;;;5013224;28;20399;-74
2022/09/03 06:19:11;;;;;;;2.42;1.52;;;15.80;99.90;;;;;;5031467;28;20025;-75
2022/09/03 06:21:41;;;;;;;3.47;1.65;;;16.00;99.90;;;;;;5022527;28;20018;-75
2022/09/03 06:24:11;;;;;;;2.08;1.60;;;16.10;99.90;;;;;;5021318;28;20033;-75
2022/09/03 06:26:38;;;;;;;2.85;1.67;;;16.10;99.90;;;;;;5017951;28;20033;-74
2022/09/03 06:29:04;;;;;;;2.17;1.63;;;16.10;99.90;;;;;;5031072;28;20029;-74
2022/09/03 06:31:30;;;;;;;3.47;1.50;;;16.20;99.90;;;;;;5018020;28;20100;-74
2022/09/03 06:33:56;;;;;;;3.65;1.67;;;16.20;99.90;;;;;;5019513;28;20453;-74
2022/09/03 06:36:25;;;;;;;2.85;1.40;;;16.00;99.90;;;;;;5011297;28;20030;-74
2022/09/03 06:38:52;;;;;;;2.55;1.50;;;16.30;99.90;;;;;;5022136;28;20491;-74
2022/09/03 06:41:23;;;;;;;1.77;1.50;;;16.30;99.90;;;;;;5019006;28;20025;-74
2022/09/03 06:43:51;;;;;;;2.72;1.40;;;16.30;99.90;;;;;;5020545;28;20064;-74
2022/09/03 06:46:20;;;;;;;3.13;1.90;;;16.40;99.90;;;;;;5028345;28;20053;-75
2022/09/03 06:48:46;;;;;;;2.03;1.67;;;16.60;99.90;;;;;;5023924;28;20083;-74
2022/09/03 06:51:17;;;;;;;3.53;1.70;;;16.60;99.90;;;;;;5010881;28;20022;-77
2022/09/03 06:53:46;;;;;;;3.53;1.67;;;16.60;99.90;;;;;;5028716;28;20026;-77
2022/09/03 06:56:14;;;;;;;5.72;2.00;;;16.70;99.90;;;;;;5022995;28;20028;-77
2022/09/03 06:58:45;;;;;;;3.45;1.65;;;16.40;99.90;;;;;;5032662;28;20104;-78
2022/09/03 07:01:15;;;;;;;3.55;1.83;;;16.30;99.90;;;;;;5015298;28;20431;-74
2022/09/03 07:03:43;;;;;;;3.35;1.60;;;16.40;99.90;;;;;;5013609;28;20026;-75
2022/09/03 07:06:12;;;;;;;3.33;1.70;;;16.50;99.90;;;;;;5002430;28;20033;-74
2022/09/03 07:08:38;;;;;;;2.60;1.70;;;16.50;99.90;;;;;;5009366;28;20511;-75
2022/09/03 07:11:10;;;;;;;2.95;1.65;;;16.60;99.90;;;;;;5012515;28;20065;-75
2022/09/03 07:13:40;;;;;;;2.20;1.40;;;16.80;99.90;;;;;;5007571;28;20021;-75
2022/09/03 07:16:07;;;;;;;2.92;2.10;;;16.90;99.90;;;;;;5013190;28;20036;-75
2022/09/03 07:18:33;;;;;;;2.05;1.60;;;16.90;99.90;;;;;;5017639;28;20076;-75
2022/09/03 07:21:06;;;;;;;2.67;1.35;;;17.00;99.90;;;;;;5015455;28;20026;-74
2022/09/03 07:23:32;;;;;;;3.85;1.80;;;17.00;99.90;;;;;;5013671;28;20037;-75
2022/09/03 07:25:59;;;;;;;4.50;1.60;;;17.00;99.90;;;;;;5026193;28;20060;-75
2022/09/03 07:28:27;;;;;;;3.78;2.00;;;17.20;99.90;;;;;;5020190;28;20032;-75
2022/09/03 07:30:54;;;;;;;3.42;1.63;;;17.40;99.90;;;;;;5013822;28;20096;-75
2022/09/03 07:33:20;;;;;;;3.72;1.80;;;17.60;99.90;;;;;;5016934;28;20093;-75
2022/09/03 07:35:46;;;;;;;3.17;1.67;;;17.60;99.90;;;;;;5021450;28;20022;-74
2022/09/03 07:38:17;;;;;;;3.95;1.92;;;17.70;99.90;;;;;;5018598;28;20076;-75
2022/09/03 07:40:43;;;;;;;2.20;1.75;;;17.90;99.90;;;;;;5014358;28;20606;-76
2022/09/03 07:43:09;;;;;;;2.05;1.60;;;17.70;99.90;;;;;;5012306;28;20080;-75
2022/09/03 07:45:36;;;;;;;3.55;1.80;;;18.00;99.90;;;;;;5016518;28;20017;-75
2022/09/03 07:48:02;;;;;;;2.28;1.52;;;18.20;99.90;;;;;;5013329;28;20408;-75
2022/09/03 07:50:31;;;;;;;2.10;1.52;;;18.20;99.90;;;;;;5026706;28;20426;-75
2022/09/03 07:52:57;;;;;;;3.28;1.80;;;18.30;99.90;;;;;;4999859;28;20022;-75
2022/09/03 07:55:24;;;;;;;2.90;1.60;;;18.40;99.90;;;;;;5014861;28;20022;-75
2022/09/03 07:57:54;;;;;;;1.67;1.50;;;18.70;99.90;;;;;;5026351;28;20026;-76
2022/09/03 08:00:20;;;;;;;4.53;1.52;;;18.70;99.90;;;;;;5012273;28;20026;-75
2022/09/03 08:02:45;;;;;;;3.83;1.77;;;19.00;99.90;;;;;;5008650;28;20691;-74
2022/09/03 08:05:11;;;;;;;5.88;1.70;;;19.00;99.90;;;;;;5009970;28;20566;-74
2022/09/03 08:07:37;;;;;;;2.30;1.50;;;19.00;99.90;;;;;;5017323;28;20028;-74
2022/09/03 08:10:03;;;;;;;2.38;1.35;;;19.10;99.90;;;;;;5016578;28;20025;-75
2022/09/03 08:12:30;;;;;;;2.97;1.52;;;19.00;99.90;;;;;;5017470;28;20399;-73
2022/09/03 08:14:56;;;;;;;4.53;1.75;;;19.10;99.90;;;;;;5014572;28;20033;-75
2022/09/03 08:17:22;;;;;;;1.73;1.38;;;19.20;99.90;;;;;;5030766;28;20025;-75
2022/09/03 08:19:48;;;;;;;1.98;1.35;;;19.00;99.90;;;;;;5017471;28;20084;-75
2022/09/03 08:22:13;;;;;;;2.65;1.95;;;18.90;99.90;;;;;;5012932;28;20026;-75
2022/09/03 08:24:40;;;;;;;3.42;1.77;;;18.90;99.90;;;;;;5011518;28;20026;-75
2022/09/03 08:27:06;;;;;;;17.48;3.10;;;18.90;99.90;;;;;;5012774;28;20029;-76
2022/09/03 08:29:31;;;;;;;3.85;1.73;;;19.00;99.90;;;;;;5013108;28;20034;-75
2022/09/03 08:31:57;;;;;;;2.95;1.50;;;19.50;99.90;;;;;;5012887;28;20080;-75
2022/09/03 08:34:23;;;;;;;4.28;1.92;;;19.60;99.90;;;;;;5025979;28;20075;-75
2022/09/03 08:36:49;;;;;;;2.28;1.60;;;19.80;99.90;;;;;;5012653;28;20384;-75
2022/09/03 08:39:15;;;;;;;3.10;1.80;;;20.10;99.90;;;;;;5013817;28;20399;-75
2022/09/03 08:41:59;;;;;;;2.53;1.40;;;20.10;99.90;;;;;;5032509;28;20021;-76
2022/09/03 08:44:28;;;;;;;5.10;1.63;;;20.10;99.90;;;;;;5032437;28;20025;-75
2022/09/03 08:47:09;;;;;;;4.90;1.60;;;20.50;99.90;;;;;;5022017;28;20034;-75
2022/09/03 08:49:40;;;;;;;1.80;1.40;;;20.70;99.90;;;;;;5026018;28;20026;-75
2022/09/03 08:52:20;;;;;;;4.47;1.83;;;20.60;99.90;;;;;;5012498;28;20022;-75
2022/09/03 08:54:47;;;;;;;6.80;1.85;;;20.30;99.90;;;;;;5001157;28;20022;-76
2022/09/03 08:57:15;;;;;;;4.65;1.60;;;20.20;99.90;;;;;;5027414;28;20017;-76
2022/09/03 08:59:41;;;;;;;2.13;1.58;;;20.40;99.90;;;;;;5021533;28;20065;-75
2022/09/03 09:02:32;;;;;;;6.63;1.90;;;20.40;99.90;;;;;;5024727;28;20546;-75
2022/09/03 09:05:09;;;;;;;3.50;1.50;;;20.10;99.90;;;;;;5029962;28;20026;-75
2022/09/03 09:07:59;;;;;;;6.03;1.70;;;20.20;99.90;;;;;;5009869;28;20028;-75
2022/09/03 09:10:47;;;;;;;3.78;1.75;;;20.40;99.90;;;;;;5010398;28;20060;-75
2022/09/03 09:13:38;;;;;;;5.25;2.00;;;20.60;99.90;;;;;;5012014;28;20021;-74
2022/09/03 09:16:19;;;;;;;4.90;1.40;;;20.80;99.90;;;;;;5011836;28;20032;-75
2022/09/03 09:19:10;;;;;;;3.63;1.83;;;20.80;99.90;;;;;;5016754;28;20025;-75
2022/09/03 09:21:44;;;;;;;2.70;1.70;;;21.00;99.90;;;;;;5011931;28;20068;-75
2022/09/03 09:24:27;;;;;;;5.18;1.55;;;20.80;99.90;;;;;;5031581;28;20029;-75
2022/09/03 09:26:58;;;;;;;2.53;1.65;;;21.00;99.90;;;;;;5031928;28;20060;-75
2022/09/03 09:29:30;;;;;;;4.68;1.80;;;21.20;99.90;;;;;;5031726;28;20041;-75
2022/09/03 09:31:56;;;;;;;4.20;1.50;;;21.40;99.90;;;;;;5030424;28;20025;-75
2022/09/03 09:34:22;;;;;;;2.38;1.33;;;21.50;99.90;;;;;;5016902;28;20034;-75
2022/09/03 09:36:52;;;;;;;3.05;1.73;;;21.50;99.90;;;;;;5011681;28;20022;-74
2022/09/03 09:39:18;;;;;;;3.38;1.50;;;21.90;99.90;;;;;;5026851;28;20090;-75
2022/09/03 09:42:07;;;;;;;3.33;1.33;;;22.00;99.90;;;;;;5022278;28;20426;-75
2022/09/03 09:44:34;;;;;;;4.68;1.45;;;22.00;99.90;;;;;;5011753;28;20483;-75
2022/09/03 09:47:06;;;;;;;2.63;1.50;;;22.40;99.20;;;;;;5011690;28;20442;-75
2022/09/03 09:49:32;;;;;;;3.15;1.58;;;22.00;99.50;;;;;;5025119;28;20061;-75
2022/09/03 09:52:16;;;;;;;2.63;1.50;;;21.80;99.40;;;;;;5024012;28;20060;-75
2022/09/03 09:54:46;;;;;;;3.45;1.70;;;21.80;99.90;;;;;;5030153;28;20033;-75
2022/09/03 09:57:21;;;;;;;4.20;1.58;;;22.30;99.10;;;;;;5014297;28;20083;-75
2022/09/03 09:59:48;;;;;;;4.28;1.67;;;22.30;99.00;;;;;;5010506;28;20018;-75
2022/09/03 10:02:27;;;;;;;2.22;1.48;;;22.50;98.50;;;;;;5011730;28;20025;-75
2022/09/03 10:05:24;;;;;;;4.55;1.83;;;22.60;98.50;;;;;;5022911;28;20163;-75
2022/09/03 10:08:20;;;;;;;3.53;1.60;;;22.50;98.60;;;;;;5020980;28;20026;-76
2022/09/03 10:10:48;;;;;;;3.60;1.52;;;22.80;98.50;;;;;;5016562;28;20042;-76
2022/09/03 10:13:20;;;;;;;1.73;1.30;;;22.80;98.50;;;;;;5024306;28;20041;-76
2022/09/03 10:15:50;;;;;;;3.80;1.80;;;23.10;98.30;;;;;;5023470;28;20518;-75
2022/09/03 10:18:31;;;;;;;1.90;1.30;;;22.80;98.20;;;;;;5028876;28;20498;-75
2022/09/03 10:21:10;;;;;;;1.95;1.40;;;23.10;98.20;;;;;;5026356;28;20072;-76
2022/09/03 10:23:59;;;;;;;3.92;1.63;;;23.40;97.80;;;;;;5020500;28;20437;-75
2022/09/03 10:26:29;;;;;;;2.35;1.30;;;23.20;96.80;;;;;;5032429;28;20029;-75
2022/09/03 10:28:58;;;;;;;3.53;1.50;;;23.40;97.90;;;;;;5024691;28;20422;-75
2022/09/03 10:31:32;;;;;;;3.05;1.58;;;24.00;97.00;;;;;;5034951;28;20450;-75
2022/09/03 10:34:13;;;;;;;3.25;1.92;;;24.00;96.40;;;;;;5023985;28;20018;-76
2022/09/03 10:37:11;;;;;;;2.78;1.60;;;24.00;96.60;;;;;;5027072;28;20030;-76
2022/09/03 10:39:57;;;;;;;2.63;1.58;;;23.10;97.50;;;;;;5026149;28;20022;-79
2022/09/03 10:43:01;;;;;;;3.20;1.55;;;23.20;97.30;;;;;;5003166;28;20030;-80
2022/09/03 10:46:00;;;;;;;1.60;1.23;;;23.10;97.60;;;;;;4990198;28;20467;-76
2022/09/03 10:48:52;;;;;;;2.15;1.30;;;23.60;97.20;;;;;;5011896;28;20028;-76
2022/09/03 10:51:24;;;;;;;1.95;1.50;;;23.80;97.10;;;;;;5002635;28;20022;-75
2022/09/03 10:54:19;;;;;;;2.33;1.33;;;23.90;97.10;;;;;;5010853;28;20026;-76
2022/09/03 10:56:56;;;;;;;1.63;1.45;;;23.60;97.30;;;;;;5014642;28;20037;-75
2022/09/03 10:59:50;;;;;;;2.25;1.50;;;24.10;96.60;;;;;;5027997;28;20046;-76
2022/09/03 11:02:34;;;;;;;4.18;1.50;;;24.20;96.60;;;;;;5027927;28;20425;-77
2022/09/03 11:05:03;;;;;;;3.50;1.42;;;24.70;96.10;;;;;;5024496;28;20022;-76
2022/09/03 11:07:45;;;;;;;3.60;1.27;;;24.80;95.70;;;;;;5025878;28;20053;-76
2022/09/03 11:10:26;;;;;;;2.90;1.58;;;25.30;95.60;;;;;;5027900;28;20030;-76
2022/09/03 11:13:13;;;;;;;2.30;1.25;;;24.90;95.10;;;;;;5013315;28;20026;-77
2022/09/03 11:15:47;;;;;;;3.25;1.80;;;24.70;95.80;;;;;;5006508;28;20029;-76
2022/09/03 11:18:43;;;;;;;2.63;1.27;;;24.50;95.90;;;;;;5016878;28;20017;-77
2022/09/03 11:21:12;;;;;;;3.15;1.45;;;24.00;95.70;;;;;;5019072;28;20033;-77
2022/09/03 11:23:46;;;;;;;2.83;1.63;;;24.00;96.00;;;;;;5019139;28;20035;-76
2022/09/03 11:26:17;;;;;;;2.50;1.30;;;23.90;95.80;;;;;;5021900;28;20030;-76
2022/09/03 11:29:14;;;;;;;3.88;1.45;;;24.20;96.10;;;;;;5013752;28;20021;-75
2022/09/03 11:31:58;;;;;;;4.88;1.45;;;24.50;96.00;;;;;;5033119;28;20109;-75
2022/09/03 11:34:26;;;;;;;1.90;1.17;;;24.70;95.50;;;;;;5018932;28;20053;-75
2022/09/03 11:37:05;;;;;;;3.00;1.40;;;24.50;96.10;;;;;;5021900;28;20033;-75
2022/09/03 11:39:30;;;;;;;1.40;1.30;;;24.70;95.50;;;;;;5033702;28;20029;-76
2022/09/03 11:42:05;;;;;;;5.47;1.42;;;24.70;95.10;;;;;;5032445;28;20029;-75
2022/09/03 11:44:42;;;;;;;2.42;1.33;;;25.10;95.10;;;;;;5033647;28;20036;-75
2022/09/03 11:47:39;;;;;;;2.72;1.33;;;25.00;95.60;;;;;;5011896;28;20415;-76
2022/09/03 11:50:29;;;;;;;1.80;1.50;;;25.50;95.10;;;;;;4991338;28;20124;-76
2022/09/03 11:53:21;;;;;;;3.72;1.50;;;25.90;94.70;;;;;;5001227;28;20025;-76
2022/09/03 11:55:53;;;;;;;4.32;1.90;;;26.00;94.20;;;;;;5008574;28;20071;-76
2022/09/03 11:58:25;;;;;;;2.65;1.60;;;25.30;94.70;;;;;;5005030;28;20500;-75
2022/09/03 12:00:52;;;;;;;5.10;1.60;;;25.40;95.20;;;;;;5015107;28;20392;-75
2022/09/03 12:03:26;;;;;;;2.63;1.55;;;25.60;95.20;;;;;;5004879;28;20014;-75
2022/09/03 12:05:58;;;;;;;3.47;1.70;;;26.20;94.20;;;;;;4996199;28;20023;-76
2022/09/03 12:08:24;;;;;;;4.03;1.55;;;26.40;93.50;;;;;;5009954;28;20026;-76
2022/09/03 12:10:57;;;;;;;1.98;1.70;;;26.00;94.00;;;;;;5007078;28;20017;-75
2022/09/03 12:13:47;;;;;;;2.42;1.48;;;25.80;93.90;;;;;;5011757;28;20152;-76
2022/09/03 12:16:37;;;;;;;4.07;1.80;;;25.40;94.30;;;;;;5009379;28;20116;-75
2022/09/03 12:19:51;;;;;;;2.85;1.60;;;24.90;94.70;;;;;;5014587;28;20024;-76
2022/09/03 12:22:18;;;;;;;2.33;2.03;;;26.10;94.30;;;;;;4990472;28;20045;-75
2022/09/03 12:24:44;;;;;;;3.67;1.65;;;26.80;93.30;;;;;;4993408;28;20113;-76
2022/09/03 12:27:15;;;;;;;4.68;3.15;;;26.30;93.50;;;;;;5007220;28;20105;-75
2022/09/03 12:29:55;;;;;;;3.38;1.80;;;26.20;93.80;;;;;;5007110;28;20498;-74
2022/09/03 12:32:20;;;;;;;1.50;1.40;;;26.10;93.90;;;;;;5005137;28;20109;-75
2022/09/03 12:34:46;;;;;;;3.45;1.73;;;26.00;93.70;;;;;;5015647;28;20452;-75
2022/09/03 12:37:22;;;;;;;4.70;1.80;;;25.90;94.00;;;;;;5012768;28;20030;-75
2022/09/03 12:39:53;;;;;;;1.80;1.58;;;26.10;94.20;;;;;;5032566;28;20025;-75
2022/09/03 12:42:30;;;;;;;3.25;1.50;;;26.20;93.90;;;;;;5019607;28;20521;-75
2022/09/03 12:45:06;;;;;;;2.15;1.50;;;26.40;94.30;;;;;;5023616;28;20515;-75
2022/09/03 12:47:38;;;;;;;2.30;1.70;;;25.70;94.20;;;;;;5014555;28;20053;-75
2022/09/03 12:50:12;;;;;;;2.70;1.60;;;25.70;94.30;;;;;;5021436;28;20096;-75
2022/09/03 12:52:46;;;;;;;2.70;1.80;;;26.50;93.50;;;;;;5022868;28;20049;-76
2022/09/03 12:55:36;;;;;;;1.83;1.50;;;26.40;93.60;;;;;;5019437;28;20029;-77
2022/09/03 12:58:25;;;;;;;3.72;1.50;;;26.30;93.60;;;;;;5001226;28;20026;-75
2022/09/03 13:01:09;;;;;;;2.55;1.75;;;25.90;94.00;;;;;;5022047;28;20029;-75
2022/09/03 13:03:53;;;;;;;2.97;1.50;;;26.00;94.30;;;;;;5026724;28;20025;-76
2022/09/03 13:06:28;;;;;;;4.53;1.63;;;25.50;94.40;;;;;;5019677;28;20018;-75
2022/09/03 13:09:01;;;;;;;3.57;1.90;;;24.90;94.80;;;;;;5017632;28;20042;-76
2022/09/03 13:11:28;;;;;;;4.20;1.58;;;24.30;95.30;;;;;;5024766;28;20036;-75
2022/09/03 13:14:04;;;;;;;5.40;1.63;;;24.20;95.70;;;;;;5024100;28;20044;-75
2022/09/03 13:16:46;;;;;;;3.97;2.00;;;24.60;95.80;;;;;;5018727;28;20022;-74
2022/09/03 13:19:31;;;;;;;3.63;1.80;;;24.80;95.70;;;;;;5009311;28;20100;-75
2022/09/03 13:22:15;;;;;;;4.03;1.90;;;24.90;95.60;;;;;;5006451;28;20026;-75